createdAt,value
2017-12-04T00:00:44.460Z,54.73
2017-12-04T00:03:12.041Z,45.53
2017-12-04T00:05:39.687Z,57.57
2017-12-04T00:08:07.276Z,53.50
2017-12-04T00:10:34.856Z,59.23
2017-12-04T00:13:02.468Z,53.93
2017-12-04T00:15:30.048Z,60.63
2017-12-04T00:17:57.675Z,50.00
2017-12-04T00:20:25.264Z,53.17
2017-12-04T00:22:52.860Z,61.83
2017-12-04T00:25:20.468Z,63.07
2017-12-04T00:27:48.055Z,65.97
2017-12-04T00:30:15.719Z,76.83
2017-12-04T00:32:43.315Z,59.73
2017-12-04T00:35:11.322Z,75.70
2017-12-04T00:37:38.930Z,77.23
2017-12-04T00:40:06.856Z,70.70
2017-12-04T00:42:34.496Z,52.37
2017-12-04T00:45:02.189Z,58.63
2017-12-04T00:47:29.765Z,58.47
2017-12-04T00:49:57.376Z,56.80
2017-12-04T00:52:24.956Z,70.73
2017-12-04T00:54:52.583Z,73.27
2017-12-04T00:57:20.160Z,62.90
2017-12-04T00:59:47.757Z,71.30
2017-12-04T01:02:15.384Z,56.60
2017-12-04T01:04:42.979Z,68.33
2017-12-04T01:07:10.947Z,65.50
2017-12-04T01:09:38.553Z,77.40
2017-12-04T01:12:06.148Z,73.53
2017-12-04T01:14:33.775Z,67.13
2017-12-04T01:17:01.394Z,71.70
2017-12-04T01:19:29.360Z,78.90
2017-12-04T01:21:56.932Z,69.43
2017-12-04T01:24:24.515Z,70.07
2017-12-04T01:26:52.149Z,65.40
2017-12-04T01:29:20.015Z,75.37
2017-12-04T01:31:47.980Z,60.63
2017-12-04T01:34:15.561Z,70.67
2017-12-04T01:36:43.130Z,67.73
2017-12-04T01:39:11.073Z,74.97
2017-12-04T01:41:38.644Z,78.30
2017-12-04T01:44:06.252Z,68.93
2017-12-04T01:46:33.832Z,68.70
2017-12-04T01:49:01.421Z,77.73
2017-12-04T01:51:29.036Z,64.80
2017-12-04T01:53:56.647Z,62.17
2017-12-04T01:56:24.267Z,72.43
2017-12-04T01:58:51.859Z,62.40
2017-12-04T02:01:19.738Z,57.77
2017-12-04T02:03:47.347Z,63.50
2017-12-04T02:06:14.935Z,58.97
2017-12-04T02:08:42.551Z,50.67
2017-12-04T02:11:10.124Z,51.30
2017-12-04T02:13:37.747Z,50.63
2017-12-04T02:16:05.354Z,47.27
2017-12-04T02:18:33.277Z,54.77
2017-12-04T02:21:00.900Z,50.70
2017-12-04T02:23:28.492Z,48.70
2017-12-04T02:25:56.067Z,42.37
2017-12-04T02:28:23.679Z,45.50
2017-12-04T02:30:51.272Z,54.77
2017-12-04T02:33:18.911Z,47.63
2017-12-04T02:35:46.492Z,53.50
2017-12-04T02:38:14.072Z,53.03
2017-12-04T02:40:41.701Z,54.70
2017-12-04T02:43:09.304Z,52.97
2017-12-04T02:45:36.921Z,54.17
2017-12-04T02:48:04.493Z,54.63
2017-12-04T02:50:32.086Z,62.83
2017-12-04T02:52:59.703Z,54.70
2017-12-04T02:55:27.293Z,57.90
2017-12-04T02:57:54.933Z,51.00
2017-12-04T03:00:22.527Z,51.43
2017-12-04T03:02:50.106Z,48.47
2017-12-04T03:05:18.057Z,65.23
2017-12-04T03:07:45.640Z,44.23
2017-12-04T03:10:13.277Z,51.03
2017-12-04T03:12:40.861Z,53.30
2017-12-04T03:15:08.820Z,40.90
2017-12-04T03:17:36.448Z,41.70
2017-12-04T03:20:04.341Z,41.03
2017-12-04T03:22:31.938Z,35.70
2017-12-04T03:24:59.568Z,45.03
2017-12-04T03:27:27.175Z,43.70
2017-12-04T03:29:54.797Z,49.70
2017-12-04T03:32:22.454Z,40.93
2017-12-04T03:34:50.038Z,43.93
2017-12-04T03:37:17.625Z,54.73
2017-12-04T03:39:45.541Z,38.77
2017-12-04T03:42:13.131Z,51.80
2017-12-04T03:44:40.746Z,44.63
2017-12-04T03:47:08.347Z,45.00
2017-12-04T03:49:35.974Z,46.83
2017-12-04T03:52:03.858Z,54.83
2017-12-04T03:54:31.731Z,47.67
2017-12-04T03:56:59.369Z,47.80
2017-12-04T03:59:27.258Z,46.30
2017-12-04T04:01:54.852Z,47.07
2017-12-04T04:04:22.795Z,43.60
2017-12-04T04:06:50.395Z,43.03
2017-12-04T04:09:18.014Z,47.17
2017-12-04T04:11:45.609Z,43.30
2017-12-04T04:14:13.180Z,36.10
2017-12-04T04:16:41.118Z,40.70
2017-12-04T04:19:08.704Z,31.97
2017-12-04T04:21:36.331Z,47.60
2017-12-04T04:24:04.200Z,42.60
2017-12-04T04:26:31.792Z,37.00
2017-12-04T04:28:59.732Z,36.27
2017-12-04T04:31:27.319Z,41.07
2017-12-04T04:33:55.264Z,30.87
2017-12-04T04:36:22.860Z,36.83
2017-12-04T04:38:50.446Z,50.50
2017-12-04T04:41:18.158Z,35.23
2017-12-04T04:43:45.740Z,44.23
2017-12-04T04:46:13.371Z,34.47
2017-12-04T04:48:41.236Z,32.17
2017-12-04T04:51:08.856Z,30.03
2017-12-04T04:53:36.490Z,33.47
2017-12-04T04:56:04.083Z,25.53
2017-12-04T04:58:31.697Z,38.10
2017-12-04T05:00:59.303Z,36.33
2017-12-04T05:03:26.900Z,35.73
2017-12-04T05:05:54.510Z,39.83
2017-12-04T05:08:22.144Z,25.20
2017-12-04T05:10:49.807Z,25.60
2017-12-04T05:13:17.391Z,38.53
2017-12-04T05:15:45.004Z,33.53
2017-12-04T05:18:12.614Z,34.93
2017-12-04T05:20:40.227Z,27.73
2017-12-04T05:23:07.880Z,33.53
2017-12-04T05:25:35.449Z,34.03
2017-12-04T05:28:03.030Z,36.03
2017-12-04T05:30:30.718Z,47.07
2017-12-04T05:32:58.311Z,18.93
2017-12-04T05:35:25.959Z,26.30
2017-12-04T05:37:53.540Z,25.50
2017-12-04T05:40:21.142Z,28.70
2017-12-04T05:42:49.109Z,31.97
2017-12-04T05:45:16.981Z,35.67
2017-12-04T05:47:44.615Z,30.00
2017-12-04T05:50:12.240Z,32.70
2017-12-04T05:52:40.179Z,37.57
2017-12-04T05:55:08.152Z,42.33
2017-12-04T05:57:35.737Z,36.47
2017-12-04T06:00:03.376Z,20.63
2017-12-04T06:02:30.957Z,37.50
2017-12-04T06:04:58.600Z,34.40
2017-12-04T06:07:26.200Z,22.77
2017-12-04T06:09:53.797Z,40.87
2017-12-04T06:12:21.787Z,39.33
2017-12-04T06:14:49.377Z,27.50
2017-12-04T06:17:16.952Z,30.10
2017-12-04T06:19:44.592Z,40.77
2017-12-04T06:22:12.177Z,27.20
2017-12-04T06:24:39.852Z,19.17
2017-12-04T06:27:07.760Z,22.60
2017-12-04T06:29:35.383Z,25.30
2017-12-04T06:32:03.000Z,28.10
2017-12-04T06:34:30.599Z,20.03
2017-12-04T06:36:58.232Z,27.13
2017-12-04T06:39:25.860Z,24.77
2017-12-04T06:41:53.844Z,23.33
2017-12-04T06:44:21.711Z,23.83
2017-12-04T06:46:49.293Z,25.10
2017-12-04T06:49:16.915Z,20.83
2017-12-04T06:51:44.501Z,22.50
2017-12-04T06:54:12.105Z,36.97
2017-12-04T06:56:39.725Z,20.60
2017-12-04T06:59:07.324Z,19.80
2017-12-04T07:01:34.947Z,24.30
2017-12-04T07:04:02.564Z,17.30
2017-12-04T07:06:30.149Z,27.27
2017-12-04T07:08:57.775Z,28.10
2017-12-04T07:11:25.365Z,20.03
2017-12-04T07:13:53.267Z,20.37
2017-12-04T07:16:20.888Z,27.03
2017-12-04T07:18:48.630Z,22.50
2017-12-04T07:21:16.249Z,34.97
2017-12-04T07:23:43.875Z,31.73
2017-12-04T07:26:11.512Z,19.53
2017-12-04T07:28:39.094Z,21.03
2017-12-04T07:31:06.663Z,27.30
2017-12-04T07:33:34.293Z,22.23
2017-12-04T07:36:01.875Z,17.43
2017-12-04T07:38:29.496Z,25.17
2017-12-04T07:40:57.349Z,27.50
2017-12-04T07:43:24.966Z,24.63
2017-12-04T07:45:52.573Z,34.13
2017-12-04T07:48:20.188Z,33.80
2017-12-04T07:50:47.826Z,23.33
2017-12-04T07:53:15.674Z,26.20
2017-12-04T07:55:43.272Z,17.83
2017-12-04T07:58:10.892Z,26.20
2017-12-04T08:00:38.492Z,29.63
2017-12-04T08:03:06.140Z,27.00
2017-12-04T08:05:33.757Z,29.37
2017-12-04T08:08:01.360Z,20.63
2017-12-04T08:10:28.975Z,20.67
2017-12-04T08:12:56.565Z,31.40
2017-12-04T08:15:26.145Z,19.63
2017-12-04T08:17:53.747Z,17.83
2017-12-04T08:20:21.390Z,27.90
2017-12-04T08:22:49.018Z,18.07
2017-12-04T08:25:16.645Z,28.33
2017-12-04T08:27:44.289Z,24.93
2017-12-04T08:30:11.893Z,23.03
2017-12-04T08:32:39.493Z,16.57
2017-12-04T08:35:07.115Z,17.70
2017-12-04T08:37:34.772Z,23.07
2017-12-04T08:40:03.272Z,22.97
2017-12-04T08:42:30.896Z,20.57
2017-12-04T08:44:58.476Z,23.57
2017-12-04T08:47:26.114Z,24.43
2017-12-04T08:49:54.068Z,29.50
2017-12-04T08:52:21.752Z,26.57
2017-12-04T08:54:49.385Z,19.50
2017-12-04T08:57:17.006Z,39.23
2017-12-04T08:59:44.631Z,17.53
2017-12-04T09:02:12.524Z,24.40
2017-12-04T09:04:40.791Z,16.93
2017-12-04T09:07:08.368Z,23.57
2017-12-04T09:09:36.116Z,25.17
2017-12-04T09:12:03.723Z,17.43
2017-12-04T09:14:31.304Z,20.63
2017-12-04T09:16:58.983Z,30.90
2017-12-04T09:19:26.564Z,15.13
2017-12-04T09:21:54.147Z,29.27
2017-12-04T09:24:21.766Z,24.07
2017-12-04T09:26:49.349Z,17.80
2017-12-04T09:29:16.992Z,20.00
2017-12-04T09:31:45.476Z,17.10
2017-12-04T09:34:13.066Z,28.17
2017-12-04T09:36:40.699Z,17.70
2017-12-04T09:39:08.287Z,15.93
2017-12-04T09:41:35.940Z,20.53
2017-12-04T09:44:03.579Z,28.77
2017-12-04T09:46:31.156Z,36.33
2017-12-04T09:48:58.794Z,22.10
2017-12-04T09:51:26.464Z,23.70
2017-12-04T09:53:54.118Z,14.73
2017-12-04T09:56:21.688Z,21.80
2017-12-04T09:58:49.340Z,22.53
2017-12-04T10:01:17.010Z,13.83
2017-12-04T10:03:44.595Z,12.20
2017-12-04T10:06:12.227Z,10.10
2017-12-04T10:08:44.502Z,13.33
2017-12-04T10:11:12.078Z,9.07
2017-12-04T10:13:40.027Z,13.90
2017-12-04T10:16:07.668Z,13.27
2017-12-04T10:18:35.268Z,10.23
2017-12-04T10:21:02.849Z,9.67
2017-12-04T10:23:30.476Z,11.87
2017-12-04T10:25:58.049Z,13.60
2017-12-04T10:28:25.683Z,13.40
2017-12-04T10:30:53.298Z,12.53
2017-12-04T10:33:21.140Z,12.73
2017-12-04T10:35:48.775Z,23.53
2017-12-04T10:38:16.594Z,12.90
2017-12-04T10:40:44.190Z,17.67
2017-12-04T10:43:12.407Z,14.10
2017-12-04T10:45:40.024Z,13.90
2017-12-04T10:48:07.689Z,17.73
2017-12-04T10:50:35.451Z,16.50
2017-12-04T10:53:03.069Z,10.87
2017-12-04T10:55:30.726Z,17.60
2017-12-04T10:57:58.316Z,23.23
2017-12-04T11:00:30.146Z,16.27
2017-12-04T11:02:57.731Z,17.53
2017-12-04T11:05:25.778Z,19.50
2017-12-04T11:07:53.364Z,15.30
2017-12-04T11:10:20.943Z,21.87
2017-12-04T11:12:48.562Z,21.97
2017-12-04T11:15:16.149Z,19.60
2017-12-04T11:17:43.792Z,16.13
2017-12-04T11:20:11.653Z,16.47
2017-12-04T11:22:39.231Z,15.93
2017-12-04T11:25:06.855Z,21.93
2017-12-04T11:27:34.745Z,15.80
2017-12-04T11:30:02.361Z,19.50
2017-12-04T11:32:30.523Z,16.83
2017-12-04T11:34:58.117Z,12.80
2017-12-04T11:37:25.723Z,16.70
2017-12-04T11:39:53.296Z,26.40
2017-12-04T11:42:20.915Z,22.07
2017-12-04T11:44:48.847Z,19.33
2017-12-04T11:47:16.429Z,21.23
2017-12-04T11:49:44.054Z,19.83
2017-12-04T11:52:11.999Z,19.93
2017-12-04T11:54:39.763Z,23.93
2017-12-04T11:57:07.349Z,16.03
2017-12-04T11:59:35.206Z,19.50
2017-12-04T12:02:02.831Z,21.60
2017-12-04T12:04:30.713Z,16.87
2017-12-04T12:06:58.585Z,18.67
2017-12-04T12:09:26.448Z,16.10
2017-12-04T12:11:54.449Z,24.53
2017-12-04T12:14:22.147Z,21.17
2017-12-04T12:16:49.752Z,19.03
2017-12-04T12:19:17.372Z,25.73
2017-12-04T12:21:45.286Z,16.60
2017-12-04T12:24:13.256Z,17.53
2017-12-04T12:26:40.871Z,13.13
2017-12-04T12:29:08.525Z,15.83
2017-12-04T12:31:36.167Z,23.37
2017-12-04T12:34:03.752Z,17.10
2017-12-04T12:36:31.368Z,15.50
2017-12-04T12:38:58.992Z,21.97
2017-12-04T12:41:26.597Z,18.87
2017-12-04T12:43:54.227Z,20.97
2017-12-04T12:46:21.812Z,17.70
2017-12-04T12:48:49.400Z,17.30
2017-12-04T12:51:17.023Z,24.23
2017-12-04T12:53:44.900Z,22.27
2017-12-04T12:56:12.537Z,15.50
2017-12-04T12:58:40.124Z,21.00
2017-12-04T13:01:07.743Z,18.33
2017-12-04T13:03:35.353Z,25.40
2017-12-04T13:06:02.948Z,22.97
2017-12-04T13:08:30.573Z,25.93
2017-12-04T13:10:58.192Z,22.10
2017-12-04T13:13:25.789Z,21.90
2017-12-04T13:15:53.393Z,15.10
2017-12-04T13:18:21.010Z,18.73
2017-12-04T13:20:48.658Z,23.80
2017-12-04T13:23:16.320Z,16.67
2017-12-04T13:25:43.896Z,13.20
2017-12-04T13:28:11.747Z,20.93
2017-12-04T13:30:41.287Z,14.50
2017-12-04T13:33:20.687Z,10.73
2017-12-04T13:36:00.204Z,16.10
2017-12-04T13:38:28.135Z,22.20
2017-12-04T13:40:55.720Z,23.67
2017-12-04T13:43:23.296Z,27.17
2017-12-04T13:45:50.937Z,16.43
2017-12-04T13:48:18.517Z,25.33
2017-12-04T13:50:46.156Z,18.67
2017-12-04T13:53:13.745Z,22.90
2017-12-04T13:55:41.336Z,14.73
2017-12-04T13:58:08.956Z,20.43
2017-12-04T14:00:36.628Z,19.43
2017-12-04T14:03:04.298Z,27.50
2017-12-04T14:05:31.888Z,14.93
2017-12-04T14:07:59.469Z,16.50
2017-12-04T14:10:27.093Z,15.70
2017-12-04T14:12:54.669Z,29.67
2017-12-04T14:15:22.288Z,19.27
2017-12-04T14:17:50.229Z,15.63
2017-12-04T14:20:17.816Z,13.43
2017-12-04T14:22:45.441Z,10.63
2017-12-04T14:25:13.019Z,22.17
2017-12-04T14:27:40.695Z,13.90
2017-12-04T14:30:08.321Z,12.70
2017-12-04T14:32:35.915Z,19.30
2017-12-04T14:35:03.561Z,12.07
2017-12-04T14:37:31.425Z,12.40
2017-12-04T14:39:59.092Z,15.90
2017-12-04T14:42:26.690Z,11.70
2017-12-04T14:44:54.301Z,22.30
2017-12-04T14:47:21.931Z,14.30
2017-12-04T14:49:49.549Z,16.27
2017-12-04T14:52:17.235Z,16.77
2017-12-04T14:54:44.843Z,14.83
2017-12-04T14:57:12.785Z,17.13
2017-12-04T14:59:40.816Z,16.10
2017-12-04T15:02:08.446Z,20.80
2017-12-04T15:04:36.122Z,12.90
2017-12-04T15:07:03.711Z,13.53
2017-12-04T15:09:31.563Z,15.30
2017-12-04T15:11:59.171Z,15.03
2017-12-04T15:14:26.773Z,14.17
2017-12-04T15:16:54.424Z,14.20
2017-12-04T15:19:22.024Z,22.00
2017-12-04T15:21:50.179Z,33.27
2017-12-04T15:24:17.810Z,27.97
2017-12-04T15:26:45.414Z,21.23
2017-12-04T15:29:13.051Z,12.40
2017-12-04T15:31:40.641Z,14.43
2017-12-04T15:34:08.302Z,24.63
2017-12-04T15:36:35.973Z,24.03
2017-12-04T15:39:03.701Z,13.23
2017-12-04T15:41:31.351Z,20.43
2017-12-04T15:43:59.027Z,28.17
2017-12-04T15:46:26.669Z,12.03
2017-12-04T15:48:54.331Z,21.63
2017-12-04T15:51:21.937Z,21.77
2017-12-04T15:53:49.557Z,20.00
2017-12-04T15:56:17.155Z,18.17
2017-12-04T15:58:44.822Z,15.03
2017-12-04T16:01:12.437Z,14.70
2017-12-04T16:03:40.353Z,15.43
2017-12-04T16:06:07.965Z,14.77
2017-12-04T16:08:35.577Z,12.90
2017-12-04T16:11:03.442Z,16.90
2017-12-04T16:13:31.056Z,18.57
2017-12-04T16:15:58.771Z,20.30
2017-12-04T16:18:26.398Z,21.03
2017-12-04T16:20:54.053Z,15.00
2017-12-04T16:23:21.961Z,14.23
2017-12-04T16:25:49.570Z,19.50
2017-12-04T16:28:17.143Z,19.93
2017-12-04T16:30:44.727Z,13.03
2017-12-04T16:33:12.351Z,21.40
2017-12-04T16:35:39.934Z,12.80
2017-12-04T16:38:07.787Z,13.63
2017-12-04T16:40:35.421Z,15.73
2017-12-04T16:43:03.064Z,23.50
2017-12-04T16:45:30.677Z,24.30
2017-12-04T16:47:58.339Z,16.10
2017-12-04T16:50:26.364Z,13.83
2017-12-04T16:52:53.968Z,15.13
2017-12-04T16:55:21.569Z,21.50
2017-12-04T16:57:49.309Z,12.70
2017-12-04T17:00:16.904Z,23.20
2017-12-04T17:02:44.786Z,15.93
2017-12-04T17:05:12.388Z,16.40
2017-12-04T17:07:39.990Z,25.17
2017-12-04T17:10:07.605Z,12.50
2017-12-04T17:12:35.228Z,19.67
2017-12-04T17:15:02.856Z,18.13
2017-12-04T17:17:30.866Z,16.43
2017-12-04T17:19:58.441Z,17.60
2017-12-04T17:22:26.388Z,20.10
2017-12-04T17:24:53.975Z,22.87
2017-12-04T17:27:21.551Z,22.80
2017-12-04T17:29:49.164Z,24.53
2017-12-04T17:32:16.748Z,17.70
2017-12-04T17:34:44.374Z,30.97
2017-12-04T17:37:11.992Z,17.57
2017-12-04T17:39:39.582Z,15.43
2017-12-04T17:42:07.199Z,19.90
2017-12-04T17:44:34.786Z,14.83
2017-12-04T17:47:02.421Z,16.87
2017-12-04T17:49:30.007Z,19.40
2017-12-04T17:51:57.585Z,14.03
2017-12-04T17:54:25.201Z,14.17
2017-12-04T17:56:53.079Z,14.13
2017-12-04T17:59:23.237Z,20.53
2017-12-04T18:01:50.929Z,12.47
2017-12-04T18:04:18.517Z,28.73
2017-12-04T18:06:46.185Z,16.50
2017-12-04T18:09:13.780Z,20.27
2017-12-04T18:11:41.396Z,15.40
2017-12-04T18:14:08.980Z,12.93
2017-12-04T18:16:36.552Z,14.97
2017-12-04T18:19:04.188Z,14.77
2017-12-04T18:21:31.776Z,14.23
2017-12-04T18:23:59.407Z,19.63
2017-12-04T18:26:27.273Z,17.23
2017-12-04T18:28:54.935Z,12.97
2017-12-04T18:31:22.549Z,17.40
2017-12-04T18:33:50.148Z,14.20
2017-12-04T18:36:17.813Z,15.30
2017-12-04T18:38:45.401Z,18.93
2017-12-04T18:41:13.003Z,23.67
2017-12-04T18:43:40.618Z,13.83
2017-12-04T18:46:08.224Z,38.47
2017-12-04T18:48:35.837Z,17.07
2017-12-04T18:51:03.408Z,18.73
2017-12-04T18:53:30.997Z,22.40
2017-12-04T18:55:58.924Z,14.83
2017-12-04T18:58:26.509Z,18.70
2017-12-04T19:00:54.145Z,13.43
2017-12-04T19:03:21.810Z,16.77
2017-12-04T19:05:49.381Z,18.10
2017-12-04T19:08:17.008Z,19.60
2017-12-04T19:10:44.606Z,15.90
2017-12-04T19:13:12.233Z,18.47
2017-12-04T19:15:39.828Z,11.67
2017-12-04T19:18:07.435Z,17.97
2017-12-04T19:20:35.065Z,15.47
2017-12-04T19:23:02.655Z,15.80
2017-12-04T19:25:30.285Z,16.40
2017-12-04T19:27:57.874Z,13.93
2017-12-04T19:30:25.459Z,20.83
2017-12-04T19:32:53.136Z,17.10
2017-12-04T19:35:20.729Z,18.90
2017-12-04T19:37:48.786Z,25.60
2017-12-04T19:40:16.429Z,21.30
2017-12-04T19:42:44.032Z,18.80
2017-12-04T19:45:11.637Z,18.30
2017-12-04T19:47:39.533Z,14.93
2017-12-04T19:50:07.276Z,16.40
2017-12-04T19:52:35.000Z,14.43
2017-12-04T19:55:02.714Z,20.17
2017-12-04T19:57:30.472Z,28.53
2017-12-04T19:59:58.085Z,20.53
2017-12-04T20:02:26.258Z,23.53
2017-12-04T20:04:54.064Z,15.77
2017-12-04T20:07:21.650Z,21.57
2017-12-04T20:09:49.286Z,16.93
2017-12-04T20:12:16.864Z,25.57
2017-12-04T20:14:44.507Z,15.70
2017-12-04T20:17:12.196Z,22.43
2017-12-04T20:19:40.194Z,19.73
2017-12-04T20:22:07.823Z,18.33
2017-12-04T20:24:35.416Z,30.23
2017-12-04T20:27:03.046Z,14.83
2017-12-04T20:29:30.660Z,19.17
2017-12-04T20:31:58.271Z,13.33
2017-12-04T20:34:25.915Z,16.90
2017-12-04T20:36:53.508Z,19.00
2017-12-04T20:39:21.140Z,14.13
2017-12-04T20:41:48.737Z,22.63
2017-12-04T20:44:16.355Z,23.83
2017-12-04T20:46:44.022Z,24.50
2017-12-04T20:49:11.693Z,16.83
2017-12-04T20:51:39.394Z,17.77
2017-12-04T20:54:07.017Z,20.87
2017-12-04T20:56:34.852Z,22.43
2017-12-04T20:59:02.460Z,13.03
2017-12-04T21:01:30.083Z,15.40
2017-12-04T21:03:57.731Z,24.03
2017-12-04T21:06:25.324Z,16.23
2017-12-04T21:09:04.856Z,19.77
2017-12-04T21:11:44.182Z,24.87
2017-12-04T21:17:25.900Z,18.90
2017-12-04T21:19:53.539Z,29.30
2017-12-04T21:22:21.139Z,35.33
2017-12-04T21:24:48.820Z,16.47
2017-12-04T21:27:16.445Z,21.33
2017-12-04T21:29:45.100Z,24.53
2017-12-04T21:32:12.728Z,19.30
2017-12-04T21:34:40.364Z,18.80
2017-12-04T21:37:07.953Z,19.77
2017-12-04T21:39:35.645Z,19.80
2017-12-04T21:42:03.467Z,22.60
2017-12-04T21:44:31.384Z,16.07
2017-12-04T21:46:58.964Z,27.73
2017-12-04T21:49:26.545Z,18.23
2017-12-04T21:51:54.169Z,27.53
2017-12-04T21:54:22.050Z,19.77
2017-12-04T21:56:49.680Z,22.43
2017-12-04T21:59:17.256Z,17.13
2017-12-04T22:01:44.847Z,17.97
2017-12-04T22:04:12.456Z,16.80
2017-12-04T22:06:40.229Z,28.73
2017-12-04T22:09:07.852Z,15.63
2017-12-04T22:11:35.484Z,12.93
2017-12-04T22:14:03.213Z,25.57
2017-12-04T22:16:31.427Z,18.10
2017-12-04T22:18:59.029Z,14.80
2017-12-04T22:21:26.676Z,28.67
2017-12-04T22:23:54.283Z,21.17
2017-12-04T22:26:22.320Z,20.23
2017-12-04T22:28:49.916Z,23.17
2017-12-04T22:31:17.520Z,19.93
2017-12-04T22:33:45.135Z,18.43
2017-12-04T22:36:12.827Z,25.17
2017-12-04T22:38:40.438Z,21.10
2017-12-04T22:41:08.063Z,13.67
2017-12-04T22:43:35.913Z,21.77
2017-12-04T22:46:03.596Z,26.63
2017-12-04T22:48:31.176Z,23.10
2017-12-04T22:50:58.802Z,19.57
2017-12-04T22:53:26.392Z,19.57
2017-12-04T22:55:54.389Z,21.83
2017-12-04T22:58:22.009Z,20.60
2017-12-04T23:00:49.589Z,16.73
2017-12-04T23:03:17.214Z,18.53
2017-12-04T23:05:45.197Z,21.30
2017-12-04T23:08:13.063Z,11.40
2017-12-04T23:10:40.647Z,27.20
2017-12-04T23:13:08.282Z,17.33
2017-12-04T23:15:35.912Z,22.37
2017-12-04T23:18:03.778Z,30.63
2017-12-04T23:20:31.376Z,19.53
2017-12-04T23:22:58.963Z,20.33
2017-12-04T23:25:26.605Z,19.60
2017-12-04T23:27:54.205Z,23.23
2017-12-04T23:30:22.925Z,17.43
2017-12-04T23:32:50.503Z,24.63
2017-12-04T23:35:18.109Z,21.90
2017-12-04T23:37:45.728Z,24.57
2017-12-04T23:40:13.335Z,26.70
2017-12-04T23:42:40.988Z,19.03
2017-12-04T23:45:08.574Z,20.40
2017-12-04T23:47:36.170Z,25.83
2017-12-04T23:50:03.797Z,24.60
2017-12-04T23:52:31.408Z,23.17
2017-12-04T23:54:59.051Z,21.37
2017-12-04T23:57:26.936Z,22.00
2017-12-04T23:59:54.524Z,25.10
